Deerfield, Ohio
Current Conditions -  °F | °C
As of 7:00 PM on Thursday 18 Dec 2014 (Local Time) from KPOV Reporting Station
Overcast Overcast  
Wind Chill: 24°   Ceiling: 1600
Heat Index: 29°   Visibility: 10mi
Dew Point: 23°   Wind: 5mph
Humidity: 79%   Direction: 250°WSW
Pressure: 30.15"   Gusts: NA
Location:  41.02°N, 81.05°W
Report Text: KPOV 190000Z AUTO 25004KT 10SM OVC016 M02/M05 A3015 RMK AO2 T10181050 11015 21018
Loading
Personal Weather Stations






























Interactive Weather Map New forecast layout! Learn more

10-Day Weather Forecast

Advertisements
Track Severe Weather on mobile